KNE629 OEJN-LTAI
Flight info
| Callsign | KNE629 |
|---|---|
| Flight time | N/A |
| Altitude | 38000 |
| Route | MIGDA L677 GESON DCT LAGVI Q777 RASDA M855 TOMBI |
| Aircraft | A20N/M-SDE2E3FGHIRWXY/LB1 |
Departure
| Time | 2026-05-06 08:47 |
|---|---|
| Airport | King Abdulaziz International Airport (OEJN) |
Arrival
| Time | N/A |
|---|---|
| Airport | Antalya International Airport (LTAI) |
| Time | Latitude | Longitude | Altitude | Speed | Heading |
|---|---|---|---|---|---|
| 2026-05-06 08:25 | 21.67650 | 39.15117 | 34 ft | 0 kts | 290° |
| 2026-05-06 08:32 | 21.67650 | 39.15118 | 34 ft | 1 kts | 290° |
| 2026-05-06 08:32 | 21.67646 | 39.15132 | 34 ft | 2 kts | 289° |
| 2026-05-06 08:32 | 21.67640 | 39.15147 | 34 ft | 2 kts | 290° |
| 2026-05-06 08:33 | 21.67635 | 39.15163 | 35 ft | 2 kts | 289° |
| 2026-05-06 08:33 | 21.67634 | 39.15168 | 35 ft | 0 kts | 289° |
| 2026-05-06 08:33 | 21.67633 | 39.15168 | 35 ft | 0 kts | 289° |
| 2026-05-06 08:34 | 21.67634 | 39.15168 | 35 ft | 0 kts | 289° |
| 2026-05-06 08:35 | 21.67635 | 39.15165 | 35 ft | 0 kts | 289° |
| 2026-05-06 08:35 | 21.67636 | 39.15161 | 35 ft | 0 kts | 289° |
| 2026-05-06 08:35 | 21.67637 | 39.15158 | 35 ft | 0 kts | 289° |
| 2026-05-06 08:35 | 21.67639 | 39.15151 | 34 ft | 1 kts | 289° |
| 2026-05-06 08:36 | 21.67640 | 39.15148 | 34 ft | 0 kts | 289° |
| 2026-05-06 08:38 | 21.67639 | 39.15151 | 34 ft | 2 kts | 290° |
| 2026-05-06 08:38 | 21.67634 | 39.15166 | 35 ft | 2 kts | 289° |
| 2026-05-06 08:38 | 21.67630 | 39.15179 | 35 ft | 0 kts | 289° |
| 2026-05-06 08:38 | 21.67627 | 39.15190 | 35 ft | 2 kts | 262° |
| 2026-05-06 08:39 | 21.67633 | 39.15206 | 35 ft | 2 kts | 221° |
| 2026-05-06 08:39 | 21.67648 | 39.15213 | 35 ft | 2 kts | 180° |
| 2026-05-06 08:39 | 21.67654 | 39.15212 | 35 ft | 0 kts | 164° |
| 2026-05-06 08:39 | 21.67661 | 39.15209 | 35 ft | 0 kts | 159° |
| 2026-05-06 08:41 | 21.67660 | 39.15209 | 35 ft | 0 kts | 159° |
| 2026-05-06 08:41 | 21.67630 | 39.15221 | 35 ft | 8 kts | 159° |
| 2026-05-06 08:41 | 21.67553 | 39.15253 | 36 ft | 13 kts | 151° |
| 2026-05-06 08:42 | 21.67547 | 39.15337 | 37 ft | 13 kts | 69° |
| 2026-05-06 08:42 | 21.67585 | 39.15447 | 39 ft | 18 kts | 69° |
| 2026-05-06 08:42 | 21.67633 | 39.15584 | 44 ft | 20 kts | 70° |
| 2026-05-06 08:42 | 21.67590 | 39.15694 | 47 ft | 17 kts | 158° |
| 2026-05-06 08:43 | 21.67482 | 39.15738 | 49 ft | 15 kts | 160° |
| 2026-05-06 08:43 | 21.67377 | 39.15778 | 50 ft | 16 kts | 160° |
| 2026-05-06 08:43 | 21.67263 | 39.15823 | 50 ft | 18 kts | 160° |
| 2026-05-06 08:43 | 21.67131 | 39.15875 | 47 ft | 21 kts | 159° |
| 2026-05-06 08:44 | 21.66981 | 39.15935 | 45 ft | 23 kts | 160° |
| 2026-05-06 08:44 | 21.66826 | 39.15996 | 48 ft | 23 kts | 160° |
| 2026-05-06 08:44 | 21.66671 | 39.16057 | 48 ft | 24 kts | 160° |
| 2026-05-06 08:44 | 21.66510 | 39.16120 | 48 ft | 25 kts | 160° |
| 2026-05-06 08:45 | 21.66343 | 39.16186 | 47 ft | 25 kts | 160° |
| 2026-05-06 08:45 | 21.66198 | 39.16246 | 48 ft | 17 kts | 143° |
| 2026-05-06 08:45 | 21.66199 | 39.16354 | 47 ft | 14 kts | 71° |
| 2026-05-06 08:45 | 21.66264 | 39.16430 | 46 ft | 15 kts | 356° |
| 2026-05-06 08:46 | 21.66442 | 39.16363 | 45 ft | 54 kts | 339° |
| 2026-05-06 08:46 | 21.67007 | 39.16141 | 42 ft | 115 kts | 339° |
| 2026-05-06 08:46 | 21.67912 | 39.15784 | 96 ft | 157 kts | 339° |
| 2026-05-06 08:46 | 21.68942 | 39.15371 | 585 ft | 161 kts | 339° |
| 2026-05-06 08:47 | 21.69996 | 39.14951 | 1177 ft | 164 kts | 340° |
| 2026-05-06 08:47 | 21.71065 | 39.14527 | 1725 ft | 169 kts | 340° |
| 2026-05-06 08:47 | 21.72209 | 39.14075 | 2028 ft | 182 kts | 340° |
| 2026-05-06 08:47 | 21.73434 | 39.13592 | 2357 ft | 196 kts | 341° |
| 2026-05-06 08:48 | 21.74759 | 39.13070 | 2614 ft | 214 kts | 341° |
| 2026-05-06 08:48 | 21.76233 | 39.12490 | 2915 ft | 233 kts | 341° |
| 2026-05-06 08:48 | 21.77817 | 39.11865 | 3275 ft | 251 kts | 341° |
| 2026-05-06 08:48 | 21.79482 | 39.11207 | 3824 ft | 260 kts | 341° |
| 2026-05-06 08:49 | 21.81179 | 39.10535 | 4546 ft | 263 kts | 341° |
| 2026-05-06 08:49 | 21.82909 | 39.09851 | 5264 ft | 267 kts | 341° |
| 2026-05-06 08:49 | 21.84653 | 39.09161 | 5976 ft | 271 kts | 342° |
| 2026-05-06 08:49 | 21.86434 | 39.08458 | 6699 ft | 275 kts | 342° |
| 2026-05-06 08:50 | 21.88242 | 39.07744 | 7427 ft | 280 kts | 342° |
| 2026-05-06 08:50 | 21.90062 | 39.06986 | 8151 ft | 285 kts | 339° |
| 2026-05-06 08:50 | 21.91894 | 39.06126 | 8877 ft | 290 kts | 338° |
| 2026-05-06 08:50 | 21.93733 | 39.05245 | 9583 ft | 295 kts | 338° |
| 2026-05-06 08:51 | 21.95627 | 39.04337 | 10284 ft | 300 kts | 338° |
| 2026-05-06 08:51 | 21.97570 | 39.03408 | 10723 ft | 314 kts | 338° |
| 2026-05-06 08:51 | 21.99599 | 39.02439 | 11036 ft | 332 kts | 338° |
| 2026-05-06 08:51 | 22.01777 | 39.01399 | 11343 ft | 349 kts | 338° |
| 2026-05-06 08:53 | 22.18343 | 38.93477 | 14945 ft | 399 kts | 336° |
| 2026-05-06 08:53 | 22.20878 | 38.92267 | 15538 ft | 403 kts | 336° |
| 2026-05-06 08:54 | 22.23446 | 38.91040 | 16127 ft | 407 kts | 336° |
| 2026-05-06 08:54 | 22.26054 | 38.89794 | 16714 ft | 411 kts | 336° |
| 2026-05-06 08:54 | 22.28646 | 38.88553 | 17287 ft | 414 kts | 336° |
| 2026-05-06 08:54 | 22.31285 | 38.87287 | 17861 ft | 417 kts | 335° |
| 2026-05-06 08:55 | 22.33961 | 38.86003 | 18430 ft | 421 kts | 335° |
| 2026-05-06 08:55 | 22.36605 | 38.84733 | 18981 ft | 424 kts | 335° |
| 2026-05-06 08:55 | 22.39319 | 38.83429 | 19535 ft | 427 kts | 335° |
| 2026-05-06 08:55 | 22.42030 | 38.82127 | 20080 ft | 430 kts | 335° |
| 2026-05-06 08:56 | 22.44744 | 38.80821 | 20618 ft | 433 kts | 335° |
| 2026-05-06 08:56 | 22.47498 | 38.79497 | 21157 ft | 436 kts | 335° |
| 2026-05-06 08:56 | 22.50286 | 38.78155 | 21683 ft | 439 kts | 335° |
| 2026-05-06 08:56 | 22.53087 | 38.76806 | 22198 ft | 441 kts | 334° |
| 2026-05-06 08:57 | 22.55893 | 38.75454 | 22700 ft | 444 kts | 334° |
| 2026-05-06 08:57 | 22.58684 | 38.74109 | 23185 ft | 446 kts | 334° |
| 2026-05-06 08:57 | 22.61524 | 38.72740 | 23663 ft | 449 kts | 334° |
| 2026-05-06 08:57 | 22.64374 | 38.71367 | 24125 ft | 451 kts | 334° |
| 2026-05-06 08:58 | 22.67269 | 38.70045 | 24575 ft | 453 kts | 336° |
| 2026-05-06 08:58 | 22.70177 | 38.68766 | 25010 ft | 455 kts | 336° |
| 2026-05-06 08:58 | 22.73137 | 38.67469 | 25434 ft | 457 kts | 336° |
| 2026-05-06 08:58 | 22.76080 | 38.66177 | 25845 ft | 459 kts | 336° |
| 2026-05-06 08:59 | 22.79037 | 38.64873 | 26236 ft | 461 kts | 336° |
| 2026-05-06 08:59 | 22.81981 | 38.63570 | 26611 ft | 463 kts | 336° |
| 2026-05-06 08:59 | 22.84939 | 38.62259 | 26972 ft | 464 kts | 335° |
| 2026-05-06 08:59 | 22.87924 | 38.60934 | 27318 ft | 466 kts | 335° |
| 2026-05-06 09:00 | 22.90949 | 38.59591 | 27652 ft | 467 kts | 335° |
| 2026-05-06 09:00 | 22.93920 | 38.58271 | 27969 ft | 468 kts | 335° |
| 2026-05-06 09:00 | 22.96950 | 38.56925 | 28287 ft | 469 kts | 335° |
| 2026-05-06 09:00 | 22.99936 | 38.55598 | 28696 ft | 467 kts | 334° |
| 2026-05-06 09:01 | 23.02950 | 38.54257 | 29179 ft | 464 kts | 334° |
| 2026-05-06 09:01 | 23.05904 | 38.52941 | 29655 ft | 460 kts | 334° |
| 2026-05-06 09:01 | 23.08840 | 38.51630 | 30106 ft | 457 kts | 334° |
| 2026-05-06 09:01 | 23.11781 | 38.50317 | 30529 ft | 455 kts | 334° |
| 2026-05-06 09:02 | 23.14680 | 38.49029 | 30935 ft | 452 kts | 334° |
| 2026-05-06 09:02 | 23.17559 | 38.47749 | 31333 ft | 450 kts | 334° |
| 2026-05-06 09:02 | 23.20453 | 38.46460 | 31724 ft | 448 kts | 334° |
| 2026-05-06 09:02 | 23.23315 | 38.45182 | 32099 ft | 445 kts | 334° |
| 2026-05-06 09:03 | 23.26160 | 38.43911 | 32459 ft | 443 kts | 334° |
| 2026-05-06 09:03 | 23.28997 | 38.42642 | 32804 ft | 441 kts | 334° |
| 2026-05-06 09:03 | 23.31826 | 38.41375 | 33137 ft | 439 kts | 334° |
| 2026-05-06 09:03 | 23.34634 | 38.40117 | 33462 ft | 437 kts | 334° |
| 2026-05-06 09:04 | 23.37417 | 38.38869 | 33773 ft | 435 kts | 334° |
| 2026-05-06 09:04 | 23.40209 | 38.37617 | 34072 ft | 433 kts | 334° |
| 2026-05-06 09:04 | 23.42985 | 38.36372 | 34343 ft | 432 kts | 334° |
| 2026-05-06 09:04 | 23.45714 | 38.35146 | 34578 ft | 431 kts | 334° |
| 2026-05-06 09:05 | 23.48493 | 38.33890 | 34821 ft | 430 kts | 333° |
| 2026-05-06 09:05 | 23.51253 | 38.32636 | 35058 ft | 429 kts | 333° |
| 2026-05-06 09:05 | 23.53981 | 38.31399 | 35281 ft | 429 kts | 333° |
| 2026-05-06 09:05 | 23.56748 | 38.30151 | 35499 ft | 428 kts | 333° |
| 2026-05-06 09:06 | 23.59477 | 38.28922 | 35709 ft | 428 kts | 333° |
| 2026-05-06 09:06 | 23.62215 | 38.27691 | 35909 ft | 427 kts | 333° |
| 2026-05-06 09:06 | 23.64956 | 38.26457 | 36084 ft | 427 kts | 333° |
| 2026-05-06 09:06 | 23.67702 | 38.25219 | 36233 ft | 428 kts | 333° |
| 2026-05-06 09:07 | 23.70425 | 38.23991 | 36360 ft | 428 kts | 333° |
| 2026-05-06 09:07 | 23.73168 | 38.22753 | 36480 ft | 429 kts | 333° |
| 2026-05-06 09:07 | 23.75914 | 38.21514 | 36597 ft | 430 kts | 333° |
| 2026-05-06 09:07 | 23.78679 | 38.20266 | 36713 ft | 430 kts | 333° |
| 2026-05-06 09:08 | 23.81457 | 38.19011 | 36823 ft | 431 kts | 333° |
| 2026-05-06 09:08 | 23.86971 | 38.16521 | 37019 ft | 432 kts | 333° |
| 2026-05-06 09:09 | 23.92507 | 38.14019 | 37206 ft | 433 kts | 333° |
| 2026-05-06 09:09 | 23.98073 | 38.11501 | 37381 ft | 434 kts | 333° |
| 2026-05-06 09:10 | 24.03657 | 38.08974 | 37534 ft | 435 kts | 333° |
| 2026-05-06 09:10 | 24.09241 | 38.06443 | 37678 ft | 436 kts | 333° |
| 2026-05-06 09:11 | 24.14707 | 38.03616 | 37818 ft | 434 kts | 328° |
| 2026-05-06 09:11 | 24.19826 | 38.00217 | 37828 ft | 432 kts | 323° |
| 2026-05-06 09:12 | 24.24774 | 37.96527 | 37830 ft | 432 kts | 322° |
| 2026-05-06 09:12 | 24.29738 | 37.92799 | 37831 ft | 432 kts | 322° |
| 2026-05-06 09:13 | 24.34673 | 37.89091 | 37831 ft | 432 kts | 322° |
| 2026-05-06 09:13 | 24.39652 | 37.85349 | 37831 ft | 432 kts | 322° |
| 2026-05-06 09:14 | 24.44619 | 37.81611 | 37831 ft | 432 kts | 322° |
| 2026-05-06 09:14 | 24.45445 | 37.80989 | 37831 ft | 432 kts | 322° |